sensor_id;sensor_type;location;lat;lon;timestamp;pressure;altitude;pressure_sealevel;temperature;humidity
74678;BME280;63207;56.328;43.994;2022-10-15T00:00:43;101408.75;;;22.29;50.98
74678;BME280;63207;56.328;43.994;2022-10-15T00:03:09;101405.28;;;22.29;50.92
74678;BME280;63207;56.328;43.994;2022-10-15T00:05:37;101410.56;;;22.29;50.92
74678;BME280;63207;56.328;43.994;2022-10-15T00:08:04;101407.06;;;22.28;50.96
74678;BME280;63207;56.328;43.994;2022-10-15T00:10:30;101414.03;;;22.29;50.98
74678;BME280;63207;56.328;43.994;2022-10-15T00:12:56;101414.03;;;22.29;50.96
74678;BME280;63207;56.328;43.994;2022-10-15T00:15:22;101413.31;;;22.27;50.88
74678;BME280;63207;56.328;43.994;2022-10-15T00:18:06;101416.78;;;22.28;51.08
74678;BME280;63207;56.328;43.994;2022-10-15T00:20:32;101415.97;;;22.27;50.91
74678;BME280;63207;56.328;43.994;2022-10-15T00:22:58;101418.59;;;22.27;51.02
74678;BME280;63207;56.328;43.994;2022-10-15T00:25:24;101415.97;;;22.27;50.91
74678;BME280;63207;56.328;43.994;2022-10-15T00:27:50;101413.31;;;22.27;50.95
74678;BME280;63207;56.328;43.994;2022-10-15T00:30:16;101413.31;;;22.27;50.89
74678;BME280;63207;56.328;43.994;2022-10-15T00:32:43;101411.69;;;22.26;51.01
74678;BME280;63207;56.328;43.994;2022-10-15T00:35:08;101417.78;;;22.27;51.01
74678;BME280;63207;56.328;43.994;2022-10-15T00:37:34;101417.78;;;22.27;50.99
74678;BME280;63207;56.328;43.994;2022-10-15T00:40:00;101417.78;;;22.27;50.98
74678;BME280;63207;56.328;43.994;2022-10-15T00:42:26;101413.31;;;22.27;50.92
74678;BME280;63207;56.328;43.994;2022-10-15T00:44:55;101418.59;;;22.27;50.91
74678;BME280;63207;56.328;43.994;2022-10-15T00:50:00;101422.06;;;22.28;50.89
74678;BME280;63207;56.328;43.994;2022-10-15T00:55:10;101427.34;;;22.28;50.94
74678;BME280;63207;56.328;43.994;2022-10-15T00:57:37;101421.22;;;22.27;50.97
74678;BME280;63207;56.328;43.994;2022-10-15T01:00:11;101427.50;;;22.26;50.83
74678;BME280;63207;56.328;43.994;2022-10-15T01:02:38;101421.22;;;22.27;50.91
74678;BME280;63207;56.328;43.994;2022-10-15T01:05:05;101416.94;;;22.26;50.92
74678;BME280;63207;56.328;43.994;2022-10-15T01:07:31;101423.88;;;22.27;50.92
74678;BME280;63207;56.328;43.994;2022-10-15T01:09:57;101429.97;;;22.28;50.84
74678;BME280;63207;56.328;43.994;2022-10-15T01:15:22;101425.69;;;22.27;50.99
74678;BME280;63207;56.328;43.994;2022-10-15T01:18:16;101432.75;;;22.26;50.94
74678;BME280;63207;56.328;43.994;2022-10-15T01:21:19;101425.69;;;22.27;50.93
74678;BME280;63207;56.328;43.994;2022-10-15T01:29:27;101434.53;;;22.26;50.94
74678;BME280;63207;56.328;43.994;2022-10-15T01:32:26;101432.88;;;22.25;50.81
74678;BME280;63207;56.328;43.994;2022-10-15T01:38:29;101437.34;;;22.24;51.06
74678;BME280;63207;56.328;43.994;2022-10-15T01:41:48;101431.06;;;22.25;50.94
74678;BME280;63207;56.328;43.994;2022-10-15T01:44:02;101434.69;;;22.24;50.99
74678;BME280;63207;56.328;43.994;2022-10-15T01:46:44;101447.88;;;22.24;50.92
74678;BME280;63207;56.328;43.994;2022-10-15T01:49:18;101444.41;;;22.24;50.89
74678;BME280;63207;56.328;43.994;2022-10-15T01:51:52;101448.81;;;22.23;50.96
74678;BME280;63207;56.328;43.994;2022-10-15T01:54:20;101449.53;;;22.25;50.93
74678;BME280;63207;56.328;43.994;2022-10-15T01:57:07;101447.88;;;22.24;50.91
74678;BME280;63207;56.328;43.994;2022-10-15T01:59:35;101448.69;;;22.25;50.88
74678;BME280;63207;56.328;43.994;2022-10-15T02:02:01;101453.16;;;22.24;50.91
74678;BME280;63207;56.328;43.994;2022-10-15T02:04:29;101449.69;;;22.24;50.92
74678;BME280;63207;56.328;43.994;2022-10-15T02:07:06;101450.50;;;22.24;50.79
74678;BME280;63207;56.328;43.994;2022-10-15T02:15:38;101455.78;;;22.24;50.99
74678;BME280;63207;56.328;43.994;2022-10-15T02:21:02;101455.78;;;22.24;50.96
74678;BME280;63207;56.328;43.994;2022-10-15T02:26:03;101454.94;;;22.24;50.91
74678;BME280;63207;56.328;43.994;2022-10-15T02:28:32;101462.00;;;22.23;50.97
74678;BME280;63207;56.328;43.994;2022-10-15T02:31:01;101462.00;;;22.23;50.87
74678;BME280;63207;56.328;43.994;2022-10-15T02:33:29;101464.63;;;22.23;50.88
74678;BME280;63207;56.328;43.994;2022-10-15T02:35:57;101475.06;;;22.25;50.83
74678;BME280;63207;56.328;43.994;2022-10-15T02:38:25;101476.03;;;22.24;50.87
74678;BME280;63207;56.328;43.994;2022-10-15T02:40:54;101476.88;;;22.24;50.84
74678;BME280;63207;56.328;43.994;2022-10-15T02:43:21;101476.03;;;22.24;50.83
74678;BME280;63207;56.328;43.994;2022-10-15T02:45:49;101487.41;;;22.24;50.84
74678;BME280;63207;56.328;43.994;2022-10-15T02:48:16;101480.31;;;22.25;50.86
74678;BME280;63207;56.328;43.994;2022-10-15T02:50:42;101482.13;;;22.24;50.86
74678;BME280;63207;56.328;43.994;2022-10-15T02:53:11;101487.41;;;22.24;50.86
74678;BME280;63207;56.328;43.994;2022-10-15T02:55:39;101487.41;;;22.24;50.83
74678;BME280;63207;56.328;43.994;2022-10-15T02:58:05;101482.13;;;22.24;50.83
74678;BME280;63207;56.328;43.994;2022-10-15T03:00:31;101481.31;;;22.24;50.79
74678;BME280;63207;56.328;43.994;2022-10-15T03:02:57;101477.81;;;22.23;50.79
74678;BME280;63207;56.328;43.994;2022-10-15T03:05:23;101482.97;;;22.25;50.84
74678;BME280;63207;56.328;43.994;2022-10-15T03:07:49;101482.13;;;22.24;50.82
74678;BME280;63207;56.328;43.994;2022-10-15T03:10:33;101484.06;;;22.22;50.93
74678;BME280;63207;56.328;43.994;2022-10-15T03:13:04;101486.69;;;22.22;50.87
74678;BME280;63207;56.328;43.994;2022-10-15T03:15:35;101489.34;;;22.22;50.80
74678;BME280;63207;56.328;43.994;2022-10-15T03:18:02;101498.06;;;22.23;50.72
74678;BME280;63207;56.328;43.994;2022-10-15T03:20:28;101491.84;;;22.24;50.74
74678;BME280;63207;56.328;43.994;2022-10-15T03:22:54;101489.34;;;22.22;50.85
74678;BME280;63207;56.328;43.994;2022-10-15T03:25:21;101493.78;;;22.22;50.85
74678;BME280;63207;56.328;43.994;2022-10-15T03:27:53;101483.25;;;22.22;50.85
74678;BME280;63207;56.328;43.994;2022-10-15T03:30:24;101493.78;;;22.22;50.86
74678;BME280;63207;56.328;43.994;2022-10-15T03:32:50;101498.91;;;22.23;50.76
74678;BME280;63207;56.328;43.994;2022-10-15T03:35:16;101495.44;;;22.23;50.80
74678;BME280;63207;56.328;43.994;2022-10-15T03:37:42;101490.16;;;22.23;50.79
74678;BME280;63207;56.328;43.994;2022-10-15T03:40:09;101498.91;;;22.23;50.79
74678;BME280;63207;56.328;43.994;2022-10-15T03:42:35;101505.16;;;22.22;50.84
74678;BME280;63207;56.328;43.994;2022-10-15T03:45:03;101498.06;;;22.23;50.80
74678;BME280;63207;56.328;43.994;2022-10-15T03:47:29;101495.44;;;22.23;50.76
74678;BME280;63207;56.328;43.994;2022-10-15T03:49:56;101501.69;;;22.22;50.86
74678;BME280;63207;56.328;43.994;2022-10-15T03:52:41;101508.63;;;22.23;50.72
74678;BME280;63207;56.328;43.994;2022-10-15T03:55:11;101500.72;;;22.23;50.80
74678;BME280;63207;56.328;43.994;2022-10-15T03:57:40;101500.72;;;22.23;50.76
74678;BME280;63207;56.328;43.994;2022-10-15T04:00:07;101498.22;;;22.21;50.73
74678;BME280;63207;56.328;43.994;2022-10-15T04:02:39;101499.88;;;22.22;50.79
74678;BME280;63207;56.328;43.994;2022-10-15T04:05:15;101499.88;;;22.22;50.89
74678;BME280;63207;56.328;43.994;2022-10-15T04:07:47;101505.97;;;22.23;50.76
74678;BME280;63207;56.328;43.994;2022-10-15T04:10:18;101508.63;;;22.23;50.76
74678;BME280;63207;56.328;43.994;2022-10-15T04:12:44;101509.59;;;22.22;50.80
74678;BME280;63207;56.328;43.994;2022-10-15T04:15:14;101510.44;;;22.22;50.83
74678;BME280;63207;56.328;43.994;2022-10-15T04:17:47;101517.50;;;22.22;50.85
74678;BME280;63207;56.328;43.994;2022-10-15T04:20:13;101517.50;;;22.22;50.77
74678;BME280;63207;56.328;43.994;2022-10-15T04:22:41;101515.69;;;22.22;50.79
74678;BME280;63207;56.328;43.994;2022-10-15T04:25:07;101518.31;;;22.22;50.76
74678;BME280;63207;56.328;43.994;2022-10-15T04:27:33;101520.13;;;22.22;50.71
74678;BME280;63207;56.328;43.994;2022-10-15T04:30:06;101523.59;;;22.22;50.81
74678;BME280;63207;56.328;43.994;2022-10-15T04:32:33;101524.59;;;22.21;50.77
74678;BME280;63207;56.328;43.994;2022-10-15T04:34:59;101520.13;;;22.22;50.75
74678;BME280;63207;56.328;43.994;2022-10-15T04:37:45;101528.03;;;22.22;50.74
74678;BME280;63207;56.328;43.994;2022-10-15T04:40:11;101532.50;;;22.21;50.80
74678;BME280;63207;56.328;43.994;2022-10-15T04:42:38;101528.03;;;22.22;50.71
74678;BME280;63207;56.328;43.994;2022-10-15T04:45:05;101535.94;;;22.22;50.79
74678;BME280;63207;56.328;43.994;2022-10-15T04:47:32;101539.53;;;22.21;50.81
74678;BME280;63207;56.328;43.994;2022-10-15T04:50:06;101527.22;;;22.21;50.72
74678;BME280;63207;56.328;43.994;2022-10-15T04:52:50;101540.41;;;22.21;50.79
74678;BME280;63207;56.328;43.994;2022-10-15T04:55:17;101544.81;;;22.21;50.85
74678;BME280;63207;56.328;43.994;2022-10-15T04:57:42;101532.50;;;22.21;50.73
74678;BME280;63207;56.328;43.994;2022-10-15T05:00:09;101538.72;;;22.20;50.76
74678;BME280;63207;56.328;43.994;2022-10-15T05:02:54;101538.72;;;22.20;50.74
74678;BME280;63207;56.328;43.994;2022-10-15T05:05:24;101554.53;;;22.20;50.76
74678;BME280;63207;56.328;43.994;2022-10-15T05:08:03;101543.97;;;22.20;50.77
74678;BME280;63207;56.328;43.994;2022-10-15T05:10:33;101551.88;;;22.20;50.64
74678;BME280;63207;56.328;43.994;2022-10-15T05:13:03;101555.34;;;22.21;50.74
74678;BME280;63207;56.328;43.994;2022-10-15T05:15:32;101543.97;;;22.20;50.74
74678;BME280;63207;56.328;43.994;2022-10-15T05:17:58;101543.97;;;22.20;50.67
74678;BME280;63207;56.328;43.994;2022-10-15T05:20:31;101548.44;;;22.20;50.71
74678;BME280;63207;56.328;43.994;2022-10-15T05:22:57;101550.06;;;22.21;50.64
74678;BME280;63207;56.328;43.994;2022-10-15T05:25:29;101552.72;;;22.21;50.69
74678;BME280;63207;56.328;43.994;2022-10-15T05:27:55;101555.34;;;22.21;50.64
74678;BME280;63207;56.328;43.994;2022-10-15T05:30:21;101555.34;;;22.21;50.68
74678;BME280;63207;56.328;43.994;2022-10-15T05:32:51;101545.66;;;22.21;50.79
74678;BME280;63207;56.328;43.994;2022-10-15T05:35:19;101556.34;;;22.20;50.68
74678;BME280;63207;56.328;43.994;2022-10-15T05:38:02;101556.22;;;22.21;50.67
74678;BME280;63207;56.328;43.994;2022-10-15T05:40:29;101553.69;;;22.20;50.72
74678;BME280;63207;56.328;43.994;2022-10-15T05:43:04;101552.84;;;22.19;50.68
74678;BME280;63207;56.328;43.994;2022-10-15T05:45:30;101548.44;;;22.20;50.73
74678;BME280;63207;56.328;43.994;2022-10-15T05:48:01;101543.16;;;22.20;50.65
74678;BME280;63207;56.328;43.994;2022-10-15T05:50:27;101551.88;;;22.20;50.63
74678;BME280;63207;56.328;43.994;2022-10-15T05:52:55;101550.19;;;22.19;50.70
74678;BME280;63207;56.328;43.994;2022-10-15T05:55:47;101549.25;;;22.20;50.68
74678;BME280;63207;56.328;43.994;2022-10-15T05:58:12;101555.47;;;22.19;50.63
74678;BME280;63207;56.328;43.994;2022-10-15T06:00:38;101554.66;;;22.19;50.71
74678;BME280;63207;56.328;43.994;2022-10-15T06:03:04;101555.47;;;22.19;50.56
74678;BME280;63207;56.328;43.994;2022-10-15T06:05:30;101552.84;;;22.19;50.69
74678;BME280;63207;56.328;43.994;2022-10-15T06:07:56;101552.00;;;22.19;50.70
74678;BME280;63207;56.328;43.994;2022-10-15T06:10:22;101558.09;;;22.19;50.79
74678;BME280;63207;56.328;43.994;2022-10-15T06:12:49;101554.66;;;22.19;50.67
74678;BME280;63207;56.328;43.994;2022-10-15T06:15:17;101561.59;;;22.20;50.64
74678;BME280;63207;56.328;43.994;2022-10-15T06:17:43;101566.88;;;22.20;50.65
74678;BME280;63207;56.328;43.994;2022-10-15T06:20:09;101558.97;;;22.20;50.52
74678;BME280;63207;56.328;43.994;2022-10-15T06:22:35;101558.97;;;22.20;50.65
74678;BME280;63207;56.328;43.994;2022-10-15T06:25:01;101560.75;;;22.19;50.69
74678;BME280;63207;56.328;43.994;2022-10-15T06:27:28;101565.19;;;22.19;50.67
74678;BME280;63207;56.328;43.994;2022-10-15T06:29:55;101569.50;;;22.20;50.68
74678;BME280;63207;56.328;43.994;2022-10-15T06:32:21;101560.75;;;22.19;50.70
74678;BME280;63207;56.328;43.994;2022-10-15T06:34:49;101562.44;;;22.20;50.58
74678;BME280;63207;56.328;43.994;2022-10-15T06:37:15;101563.38;;;22.19;50.70
74678;BME280;63207;56.328;43.994;2022-10-15T06:39:59;101571.41;;;22.18;50.71
74678;BME280;63207;56.328;43.994;2022-10-15T06:42:25;101574.88;;;22.18;50.62
74678;BME280;63207;56.328;43.994;2022-10-15T06:44:54;101572.38;;;22.17;50.61
74678;BME280;63207;56.328;43.994;2022-10-15T06:47:20;101573.22;;;22.17;50.62
74678;BME280;63207;56.328;43.994;2022-10-15T06:49:46;101571.41;;;22.18;50.72
74678;BME280;63207;56.328;43.994;2022-10-15T06:52:12;101573.22;;;22.17;50.70
74678;BME280;63207;56.328;43.994;2022-10-15T06:54:38;101575.03;;;22.17;50.63
74678;BME280;63207;56.328;43.994;2022-10-15T06:57:04;101576.69;;;22.18;50.66
74678;BME280;63207;56.328;43.994;2022-10-15T06:59:30;101578.47;;;22.17;50.76
74678;BME280;63207;56.328;43.994;2022-10-15T07:01:56;101584.59;;;22.18;50.64
74678;BME280;63207;56.328;43.994;2022-10-15T07:04:22;101584.59;;;22.18;50.65
74678;BME280;63207;56.328;43.994;2022-10-15T07:06:48;101583.63;;;22.19;50.64
74678;BME280;63207;56.328;43.994;2022-10-15T07:09:15;101592.50;;;22.18;50.72
74678;BME280;63207;56.328;43.994;2022-10-15T07:11:41;101594.19;;;22.19;50.65
74678;BME280;63207;56.328;43.994;2022-10-15T07:14:07;101587.22;;;22.18;50.62
74678;BME280;63207;56.328;43.994;2022-10-15T07:16:33;101598.59;;;22.18;50.62
74678;BME280;63207;56.328;43.994;2022-10-15T07:18:59;101603.84;;;22.18;50.58
74678;BME280;63207;56.328;43.994;2022-10-15T07:21:25;101598.59;;;22.18;50.70
74678;BME280;63207;56.328;43.994;2022-10-15T07:23:51;101598.59;;;22.18;50.64
74678;BME280;63207;56.328;43.994;2022-10-15T07:26:17;101603.84;;;22.18;50.63
74678;BME280;63207;56.328;43.994;2022-10-15T07:28:43;101604.72;;;22.19;50.64
74678;BME280;63207;56.328;43.994;2022-10-15T07:31:08;101607.47;;;22.17;50.64
74678;BME280;63207;56.328;43.994;2022-10-15T07:33:34;101610.94;;;22.18;50.67
74678;BME280;63207;56.328;43.994;2022-10-15T07:36:03;101607.47;;;22.17;50.59
74678;BME280;63207;56.328;43.994;2022-10-15T07:38:29;101613.56;;;22.18;50.59
74678;BME280;63207;56.328;43.994;2022-10-15T07:40:59;101609.97;;;22.19;50.54
74678;BME280;63207;56.328;43.994;2022-10-15T07:43:26;101609.13;;;22.18;50.60
74678;BME280;63207;56.328;43.994;2022-10-15T07:46:11;101604.72;;;22.19;50.58
74678;BME280;63207;56.328;43.994;2022-10-15T07:48:37;101605.66;;;22.18;50.59
74678;BME280;63207;56.328;43.994;2022-10-15T07:51:05;101612.63;;;22.19;50.62
74678;BME280;63207;56.328;43.994;2022-10-15T07:53:32;101609.13;;;22.18;50.57
74678;BME280;63207;56.328;43.994;2022-10-15T07:56:04;101610.94;;;22.18;50.57
74678;BME280;63207;56.328;43.994;2022-10-15T07:58:33;101612.75;;;22.17;50.56
74678;BME280;63207;56.328;43.994;2022-10-15T08:01:04;101612.75;;;22.17;50.58
74678;BME280;63207;56.328;43.994;2022-10-15T08:03:30;101610.09;;;22.17;50.49
74678;BME280;63207;56.328;43.994;2022-10-15T08:05:59;101609.13;;;22.18;50.56
74678;BME280;63207;56.328;43.994;2022-10-15T08:08:27;101611.75;;;22.18;50.58
74678;BME280;63207;56.328;43.994;2022-10-15T08:10:53;101607.47;;;22.17;50.57
74678;BME280;63207;56.328;43.994;2022-10-15T08:13:19;101615.38;;;22.17;50.53
74678;BME280;63207;56.328;43.994;2022-10-15T08:15:49;101613.56;;;22.18;50.53
74678;BME280;63207;56.328;43.994;2022-10-15T08:18:15;101613.72;;;22.16;50.50
74678;BME280;63207;56.328;43.994;2022-10-15T08:20:42;101607.47;;;22.17;50.55
74678;BME280;63207;56.328;43.994;2022-10-15T08:23:16;101609.97;;;22.19;50.57
74678;BME280;63207;56.328;43.994;2022-10-15T08:25:42;101607.47;;;22.17;50.57
74678;BME280;63207;56.328;43.994;2022-10-15T08:28:11;101607.59;;;22.15;50.62
74678;BME280;63207;56.328;43.994;2022-10-15T08:30:37;101612.75;;;22.17;50.54
74678;BME280;63207;56.328;43.994;2022-10-15T08:33:09;101614.56;;;22.17;50.51
74678;BME280;63207;56.328;43.994;2022-10-15T08:35:35;101615.38;;;22.17;50.61
74678;BME280;63207;56.328;43.994;2022-10-15T08:38:04;101613.72;;;22.16;50.62
74678;BME280;63207;56.328;43.994;2022-10-15T08:40:31;101610.09;;;22.17;50.58
74678;BME280;63207;56.328;43.994;2022-10-15T08:42:59;101611.91;;;22.17;50.56
74678;BME280;63207;56.328;43.994;2022-10-15T08:45:29;101609.28;;;22.17;50.51
74678;BME280;63207;56.328;43.994;2022-10-15T08:48:33;101610.09;;;22.17;50.53
74678;BME280;63207;56.328;43.994;2022-10-15T08:53:24;101611.91;;;22.17;50.64
74678;BME280;63207;56.328;43.994;2022-10-15T08:55:59;101610.22;;;22.15;50.49
74678;BME280;63207;56.328;43.994;2022-10-15T08:58:40;101616.34;;;22.16;50.60
74678;BME280;63207;56.328;43.994;2022-10-15T09:01:13;101604.97;;;22.15;50.66
74678;BME280;63207;56.328;43.994;2022-10-15T09:03:55;101616.34;;;22.16;50.72
74678;BME280;63207;56.328;43.994;2022-10-15T09:06:35;101606.75;;;22.15;50.56
74678;BME280;63207;56.328;43.994;2022-10-15T09:11:53;101613.84;;;22.14;50.60
74678;BME280;63207;56.328;43.994;2022-10-15T09:14:28;101606.88;;;22.13;50.57
74678;BME280;63207;56.328;43.994;2022-10-15T09:16:58;101609.41;;;22.15;50.64
74678;BME280;63207;56.328;43.994;2022-10-15T09:19:49;101609.41;;;22.15;50.55
74678;BME280;63207;56.328;43.994;2022-10-15T09:22:18;101610.38;;;22.14;50.49
74678;BME280;63207;56.328;43.994;2022-10-15T09:24:48;101613.00;;;22.14;50.56
74678;BME280;63207;56.328;43.994;2022-10-15T09:27:34;101621.75;;;22.14;50.48
74678;BME280;63207;56.328;43.994;2022-10-15T09:35:50;101607.59;;;22.15;50.46
74678;BME280;63207;56.328;43.994;2022-10-15T09:44:12;101602.47;;;22.14;50.51
74678;BME280;63207;56.328;43.994;2022-10-15T09:46:44;101606.75;;;22.15;50.55
74678;BME280;63207;56.328;43.994;2022-10-15T09:49:25;101610.22;;;22.15;50.57
74678;BME280;63207;56.328;43.994;2022-10-15T09:57:30;101606.75;;;22.15;50.48
74678;BME280;63207;56.328;43.994;2022-10-15T09:59:58;101603.31;;;22.14;50.54
74678;BME280;63207;56.328;43.994;2022-10-15T10:02:27;101606.75;;;22.15;50.54
74678;BME280;63207;56.328;43.994;2022-10-15T10:04:53;101609.41;;;22.15;50.58
74678;BME280;63207;56.328;43.994;2022-10-15T10:07:31;101614.66;;;22.15;50.41
74678;BME280;63207;56.328;43.994;2022-10-15T10:10:20;101615.50;;;22.15;50.47
74678;BME280;63207;56.328;43.994;2022-10-15T10:12:47;101617.31;;;22.15;50.56
74678;BME280;63207;56.328;43.994;2022-10-15T10:15:30;101610.22;;;22.15;50.46
74678;BME280;63207;56.328;43.994;2022-10-15T10:17:59;101615.38;;;22.17;50.43
74678;BME280;63207;56.328;43.994;2022-10-15T10:20:30;101613.72;;;22.16;50.58
74678;BME280;63207;56.328;43.994;2022-10-15T10:23:02;101621.63;;;22.16;50.45
74678;BME280;63207;56.328;43.994;2022-10-15T10:25:46;101617.31;;;22.15;50.31
74678;BME280;63207;56.328;43.994;2022-10-15T10:28:29;101623.28;;;22.17;50.44
74678;BME280;63207;56.328;43.994;2022-10-15T10:33:49;101618.13;;;22.15;50.59
74678;BME280;63207;56.328;43.994;2022-10-15T10:36:30;101610.22;;;22.15;50.45
74678;BME280;63207;56.328;43.994;2022-10-15T10:44:48;101619.00;;;22.16;50.46
74678;BME280;63207;56.328;43.994;2022-10-15T10:47:24;101614.66;;;22.15;50.62
74678;BME280;63207;56.328;43.994;2022-10-15T10:49:56;101615.50;;;22.15;50.51
74678;BME280;63207;56.328;43.994;2022-10-15T10:55:16;101616.34;;;22.16;50.45
74678;BME280;63207;56.328;43.994;2022-10-15T10:57:47;101614.66;;;22.15;50.35
74678;BME280;63207;56.328;43.994;2022-10-15T11:00:40;101624.25;;;22.16;50.55
74678;BME280;63207;56.328;43.994;2022-10-15T11:03:19;101618.13;;;22.15;50.45
74678;BME280;63207;56.328;43.994;2022-10-15T11:06:00;101618.13;;;22.15;50.45
74678;BME280;63207;56.328;43.994;2022-10-15T11:08:35;101610.38;;;22.14;50.44
74678;BME280;63207;56.328;43.994;2022-10-15T11:11:22;101614.66;;;22.15;50.48
74678;BME280;63207;56.328;43.994;2022-10-15T11:14:00;101619.00;;;22.16;50.67
74678;BME280;63207;56.328;43.994;2022-10-15T11:24:46;101626.91;;;22.16;50.47
74678;BME280;63207;56.328;43.994;2022-10-15T11:27:27;101626.91;;;22.16;50.45
74678;BME280;63207;56.328;43.994;2022-10-15T11:35:33;101626.91;;;22.16;50.50
74678;BME280;63207;56.328;43.994;2022-10-15T11:49:30;101630.47;;;22.15;50.44
74678;BME280;63207;56.328;43.994;2022-10-15T11:57:41;101632.16;;;22.16;50.37
74678;BME280;63207;56.328;43.994;2022-10-15T12:00:46;101626.03;;;22.15;50.26
74678;BME280;63207;56.328;43.994;2022-10-15T12:03:22;101626.91;;;22.16;50.48
74678;BME280;63207;56.328;43.994;2022-10-15T12:08:18;101627.84;;;22.15;50.36
74678;BME280;63207;56.328;43.994;2022-10-15T12:10:55;101626.91;;;22.16;50.48
74678;BME280;63207;56.328;43.994;2022-10-15T12:13:30;101633.00;;;22.17;50.38
74678;BME280;63207;56.328;43.994;2022-10-15T12:21:35;101628.69;;;22.15;50.38
74678;BME280;63207;56.328;43.994;2022-10-15T12:24:03;101632.16;;;22.16;50.45
74678;BME280;63207;56.328;43.994;2022-10-15T12:26:33;101631.19;;;22.17;50.35
74678;BME280;63207;56.328;43.994;2022-10-15T12:29:03;101625.91;;;22.17;50.38
74678;BME280;63207;56.328;43.994;2022-10-15T12:31:50;101625.91;;;22.17;50.47
74678;BME280;63207;56.328;43.994;2022-10-15T12:34:35;101631.31;;;22.15;50.41
74678;BME280;63207;56.328;43.994;2022-10-15T12:37:12;101632.16;;;22.16;50.38
74678;BME280;63207;56.328;43.994;2022-10-15T12:39:41;101628.56;;;22.17;50.36
74678;BME280;63207;56.328;43.994;2022-10-15T12:42:34;101630.38;;;22.17;50.37
74678;BME280;63207;56.328;43.994;2022-10-15T12:45:03;101636.47;;;22.17;50.42
74678;BME280;63207;56.328;43.994;2022-10-15T12:47:51;101639.09;;;22.17;50.30
74678;BME280;63207;56.328;43.994;2022-10-15T12:50:24;101628.56;;;22.17;50.34
74678;BME280;63207;56.328;43.994;2022-10-15T12:55:34;101627.72;;;22.17;50.38
74678;BME280;63207;56.328;43.994;2022-10-15T12:58:05;101637.28;;;22.18;50.33
74678;BME280;63207;56.328;43.994;2022-10-15T13:00:37;101636.47;;;22.17;50.33
74678;BME280;63207;56.328;43.994;2022-10-15T13:05:40;101638.28;;;22.17;50.45
74678;BME280;63207;56.328;43.994;2022-10-15T13:08:22;101645.19;;;22.18;50.25
74678;BME280;63207;56.328;43.994;2022-10-15T13:10:53;101638.13;;;22.18;50.52
74678;BME280;63207;56.328;43.994;2022-10-15T13:13:24;101635.47;;;22.18;50.31
74678;BME280;63207;56.328;43.994;2022-10-15T13:16:00;101641.72;;;22.17;50.46
74678;BME280;63207;56.328;43.994;2022-10-15T13:18:29;101633.81;;;22.17;50.35
74678;BME280;63207;56.328;43.994;2022-10-15T13:20:56;101641.72;;;22.17;50.38
74678;BME280;63207;56.328;43.994;2022-10-15T13:26:10;101639.94;;;22.18;50.37
74678;BME280;63207;56.328;43.994;2022-10-15T13:28:41;101648.66;;;22.18;50.35
74678;BME280;63207;56.328;43.994;2022-10-15T13:31:28;101645.19;;;22.18;50.49
74678;BME280;63207;56.328;43.994;2022-10-15T13:33:58;101644.38;;;22.17;50.39
74678;BME280;63207;56.328;43.994;2022-10-15T13:36:33;101646.19;;;22.17;50.33
74678;BME280;63207;56.328;43.994;2022-10-15T13:39:05;101636.47;;;22.17;50.37
74678;BME280;63207;56.328;43.994;2022-10-15T13:41:50;101643.53;;;22.17;50.32
74678;BME280;63207;56.328;43.994;2022-10-15T13:44:21;101641.72;;;22.17;50.45
74678;BME280;63207;56.328;43.994;2022-10-15T13:46:48;101643.53;;;22.17;50.35
74678;BME280;63207;56.328;43.994;2022-10-15T13:49:14;101650.47;;;22.18;50.43
74678;BME280;63207;56.328;43.994;2022-10-15T13:51:44;101649.63;;;22.17;50.35
74678;BME280;63207;56.328;43.994;2022-10-15T13:54:37;101649.63;;;22.17;50.38
74678;BME280;63207;56.328;43.994;2022-10-15T13:57:03;101656.56;;;22.18;50.31
74678;BME280;63207;56.328;43.994;2022-10-15T13:59:30;101656.56;;;22.18;50.30
74678;BME280;63207;56.328;43.994;2022-10-15T14:01:59;101648.66;;;22.18;50.28
74678;BME280;63207;56.328;43.994;2022-10-15T14:04:33;101653.94;;;22.18;50.34
74678;BME280;63207;56.328;43.994;2022-10-15T14:07:02;101653.09;;;22.18;50.29
74678;BME280;63207;56.328;43.994;2022-10-15T14:09:46;101647.81;;;22.18;50.30
74678;BME280;63207;56.328;43.994;2022-10-15T14:12:13;101653.09;;;22.18;50.39
74678;BME280;63207;56.328;43.994;2022-10-15T14:14:44;101661.84;;;22.18;50.31
74678;BME280;63207;56.328;43.994;2022-10-15T14:17:21;101660.06;;;22.19;50.36
74678;BME280;63207;56.328;43.994;2022-10-15T14:19:50;101660.06;;;22.19;50.31
74678;BME280;63207;56.328;43.994;2022-10-15T14:22:20;101663.53;;;22.19;50.36
74678;BME280;63207;56.328;43.994;2022-10-15T14:24:52;101661.84;;;22.18;50.42
74678;BME280;63207;56.328;43.994;2022-10-15T14:27:23;101669.75;;;22.18;50.34
74678;BME280;63207;56.328;43.994;2022-10-15T14:29:55;101669.75;;;22.18;50.37
74678;BME280;63207;56.328;43.994;2022-10-15T14:32:25;101669.75;;;22.18;50.29
74678;BME280;63207;56.328;43.994;2022-10-15T14:34:53;101669.75;;;22.18;50.37
74678;BME280;63207;56.328;43.994;2022-10-15T14:37:46;101672.38;;;22.18;50.42
74678;BME280;63207;56.328;43.994;2022-10-15T14:40:16;101672.38;;;22.18;50.36
74678;BME280;63207;56.328;43.994;2022-10-15T14:42:48;101668.78;;;22.19;50.37
74678;BME280;63207;56.328;43.994;2022-10-15T14:45:28;101673.22;;;22.19;50.26
74678;BME280;63207;56.328;43.994;2022-10-15T14:47:57;101677.66;;;22.18;50.31
74678;BME280;63207;56.328;43.994;2022-10-15T14:50:30;101676.69;;;22.19;50.36